createdAt,value
2022-10-18T00:00:10.071Z,101810.31
2022-10-18T00:02:41.422Z,101812.78
2022-10-18T00:05:11.897Z,101814.84
2022-10-18T00:07:42.024Z,101812.16
2022-10-18T00:10:15.409Z,101821.91
2022-10-18T00:12:47.737Z,101810.50
2022-10-18T00:15:17.522Z,101819.41
2022-10-18T00:17:48.295Z,101820.66
2022-10-18T00:20:18.112Z,101824.59
2022-10-18T00:22:48.038Z,101816.50
2022-10-18T00:25:18.638Z,101828.31
2022-10-18T00:27:51.303Z,101827.47
2022-10-18T00:30:22.561Z,101816.69
2022-10-18T00:32:52.289Z,101824.78
2022-10-18T00:35:22.065Z,101819.78
2022-10-18T00:37:51.839Z,101833.28
2022-10-18T00:40:21.821Z,101838.03
2022-10-18T00:42:54.385Z,101837.22
2022-10-18T00:45:25.871Z,101832.00
2022-10-18T00:47:59.587Z,101837.41
2022-10-18T00:50:37.135Z,101834.09
2022-10-18T00:53:15.703Z,101833.03
2022-10-18T00:55:45.514Z,101833.03
2022-10-18T00:58:20.832Z,101835.13
2022-10-18T01:00:50.667Z,101839.28
2022-10-18T01:03:20.870Z,101834.28
2022-10-18T01:05:51.812Z,101828.47
2022-10-18T01:09:03.485Z,101833.22
2022-10-18T01:11:54.342Z,101829.69
2022-10-18T01:14:38.317Z,101829.06
2022-10-18T01:17:15.082Z,101836.94
2022-10-18T01:20:11.498Z,101838.22
2022-10-18T01:22:50.591Z,101835.75
2022-10-18T01:25:33.305Z,101841.38
2022-10-18T01:28:18.317Z,101842.81
2022-10-18T01:30:56.956Z,101840.38
2022-10-18T01:33:36.728Z,101828.34
2022-10-18T01:36:11.839Z,101836.84
2022-10-18T01:38:44.314Z,101833.97
2022-10-18T01:41:16.201Z,101828.38
2022-10-18T01:43:54.627Z,101820.28
2022-10-18T01:46:29.331Z,101816.53
2022-10-18T01:49:00.482Z,101826.75
2022-10-18T01:51:32.922Z,101823.22
2022-10-18T01:54:03.156Z,101816.59
2022-10-18T01:56:41.059Z,101834.44
2022-10-18T01:59:41.391Z,101840.66
2022-10-18T02:02:26.638Z,101842.34
2022-10-18T02:05:04.201Z,101846.50
2022-10-18T02:07:43.665Z,101842.13
2022-10-18T02:10:19.923Z,101839.22
2022-10-18T02:12:55.852Z,101839.44
2022-10-18T02:15:29.320Z,101823.25
2022-10-18T02:18:02.498Z,101836.75
2022-10-18T02:20:35.284Z,101828.66
2022-10-18T02:23:08.255Z,101820.75
2022-10-18T02:25:38.867Z,101823.44
2022-10-18T02:28:09.617Z,101827.81
2022-10-18T02:30:46.526Z,101836.31
2022-10-18T02:33:24.212Z,101840.88
2022-10-18T02:35:59.865Z,101834.66
2022-10-18T02:38:31.477Z,101830.09
2022-10-18T02:41:01.884Z,101839.84
2022-10-18T02:43:31.711Z,101839.22
2022-10-18T02:46:01.740Z,101837.75
2022-10-18T02:48:34.446Z,101841.47
2022-10-18T02:51:04.281Z,101848.75
2022-10-18T02:53:34.119Z,101854.13
2022-10-18T02:56:03.919Z,101855.16
2022-10-18T02:58:33.779Z,101844.38
2022-10-18T03:01:03.572Z,101845.84
2022-10-18T03:03:35.992Z,101852.91
2022-10-18T03:06:05.832Z,101857.25
2022-10-18T03:08:38.834Z,101847.50
2022-10-18T03:11:09.640Z,101855.38
2022-10-18T03:13:39.464Z,101859.13
2022-10-18T03:16:09.273Z,101856.63
2022-10-18T03:18:41.594Z,101859.31
2022-10-18T03:21:12.413Z,101860.16
2022-10-18T03:23:43.735Z,101861.19
2022-10-18T03:26:13.476Z,101875.09
2022-10-18T03:28:43.343Z,101887.97
2022-10-18T03:31:13.065Z,101887.53
2022-10-18T03:33:45.412Z,101886.84
2022-10-18T03:36:15.173Z,101895.34
2022-10-18T03:38:44.983Z,101882.91
2022-10-18T03:41:14.750Z,101879.56
2022-10-18T03:43:44.557Z,101865.66
2022-10-18T03:46:14.454Z,101873.94
2022-10-18T03:48:46.806Z,101862.53
2022-10-18T03:51:16.546Z,101863.38
2022-10-18T03:53:46.312Z,101855.47
2022-10-18T03:56:16.048Z,101861.69
2022-10-18T03:58:45.789Z,101873.50
2022-10-18T04:01:15.849Z,101874.56
2022-10-18T04:03:48.223Z,101874.75
2022-10-18T04:06:17.966Z,101873.09
2022-10-18T04:08:47.686Z,101875.16
2022-10-18T04:11:17.899Z,101867.69
2022-10-18T04:13:47.738Z,101869.56
2022-10-18T04:16:17.475Z,101870.59
2022-10-18T04:18:53.415Z,101874.72
2022-10-18T04:21:23.219Z,101878.88
2022-10-18T04:23:53.644Z,101880.09
2022-10-18T04:26:23.547Z,101874.91
2022-10-18T04:28:53.403Z,101879.47
2022-10-18T04:31:23.155Z,101871.59
2022-10-18T04:33:55.494Z,101873.66
2022-10-18T04:36:25.207Z,101875.31
2022-10-18T04:38:54.930Z,101878.22
2022-10-18T04:41:24.784Z,101875.72
2022-10-18T04:43:54.525Z,101883.16
2022-10-18T04:46:24.257Z,101886.06
2022-10-18T04:48:56.645Z,101880.81
2022-10-18T04:51:26.479Z,101877.31
2022-10-18T04:53:56.305Z,101877.69
2022-10-18T04:56:26.200Z,101872.31
2022-10-18T04:58:55.923Z,101867.13
2022-10-18T05:01:25.737Z,101865.44
2022-10-18T05:03:58.419Z,101870.84
2022-10-18T05:06:28.202Z,101868.16
2022-10-18T05:08:57.984Z,101865.84
2022-10-18T05:11:28.009Z,101872.28
2022-10-18T05:13:57.736Z,101871.25
2022-10-18T05:16:32.721Z,101860.03
2022-10-18T05:19:22.989Z,101863.56
2022-10-18T05:21:53.012Z,101859.00
2022-10-18T05:24:25.462Z,101865.59
2022-10-18T05:26:57.893Z,101877.41
2022-10-18T05:32:17.721Z,101868.50
2022-10-18T05:34:50.092Z,101869.72
2022-10-18T05:37:22.032Z,101862.03
2022-10-18T05:39:54.546Z,101873.66
2022-10-18T05:42:24.224Z,101870.31
2022-10-18T05:44:53.928Z,101865.13
2022-10-18T05:47:23.740Z,101863.47
2022-10-18T05:49:56.122Z,101862.59
2022-10-18T05:52:25.881Z,101856.38
2022-10-18T05:54:55.624Z,101857.22
2022-10-18T05:57:25.884Z,101865.50
2022-10-18T05:59:55.610Z,101859.28
2022-10-18T06:02:25.353Z,101858.84
2022-10-18T06:04:57.719Z,101868.13
2022-10-18T06:07:27.591Z,101872.69
2022-10-18T06:09:57.386Z,101875.56
2022-10-18T06:12:27.174Z,101880.09
2022-10-18T06:14:56.885Z,101881.97
2022-10-18T06:17:28.946Z,101886.53
2022-10-18T06:20:04.364Z,101877.81
2022-10-18T06:22:34.097Z,101874.09
2022-10-18T06:25:03.962Z,101870.56
2022-10-18T06:27:36.219Z,101858.31
2022-10-18T06:30:06.752Z,101865.13
2022-10-18T06:32:36.487Z,101855.38
2022-10-18T06:35:10.011Z,101870.25
2022-10-18T06:37:39.815Z,101864.88
2022-10-18T06:40:11.221Z,101854.94
2022-10-18T06:42:40.985Z,101855.56
2022-10-18T06:45:12.141Z,101858.25
2022-10-18T06:47:41.896Z,101862.22
2022-10-18T06:50:14.517Z,101853.31
2022-10-18T06:52:44.244Z,101853.91
2022-10-18T06:55:14.087Z,101855.31
2022-10-18T06:57:43.826Z,101869.63
2022-10-18T07:00:15.380Z,101876.03
2022-10-18T07:02:45.138Z,101875.66
2022-10-18T07:05:17.739Z,101876.91
2022-10-18T07:07:50.630Z,101878.59
2022-10-18T07:10:22.040Z,101870.69
2022-10-18T07:13:13.328Z,101873.59
2022-10-18T07:15:44.792Z,101870.06
2022-10-18T07:18:14.529Z,101881.03
2022-10-18T07:20:46.934Z,101889.31
2022-10-18T07:23:16.683Z,101892.44
2022-10-18T07:25:46.925Z,101898.28
2022-10-18T07:28:16.656Z,101902.81
2022-10-18T07:30:46.372Z,101918.59
2022-10-18T07:33:16.093Z,101913.41
2022-10-18T07:35:48.393Z,101917.97
2022-10-18T07:38:18.139Z,101922.31
2022-10-18T07:40:47.910Z,101926.44
2022-10-18T07:43:17.673Z,101930.16
2022-10-18T07:45:54.572Z,101940.91
2022-10-18T07:48:24.755Z,101939.06
2022-10-18T07:50:57.529Z,101942.59
2022-10-18T07:53:27.339Z,101946.38
2022-10-18T07:56:02.432Z,101942.63
2022-10-18T07:58:34.978Z,101945.59
2022-10-18T08:01:05.701Z,101938.81
2022-10-18T08:03:35.966Z,101933.03
2022-10-18T08:06:10.929Z,101929.78
2022-10-18T08:08:42.692Z,101931.06
2022-10-18T08:11:14.881Z,101926.69
2022-10-18T08:13:45.156Z,101933.13
2022-10-18T08:16:16.836Z,101928.97
2022-10-18T08:18:47.195Z,101929.78
2022-10-18T08:21:21.249Z,101924.41
2022-10-18T08:23:51.953Z,101923.56
2022-10-18T08:26:24.207Z,101917.34
2022-10-18T08:29:09.923Z,101914.66
2022-10-18T08:31:43.999Z,101904.72
2022-10-18T08:34:19.357Z,101906.09
2022-10-18T08:36:53.505Z,101902.97
2022-10-18T08:39:23.287Z,101907.72
2022-10-18T08:42:15.076Z,101900.00
2022-10-18T08:44:47.854Z,101902.03
2022-10-18T08:47:21.524Z,101914.44
2022-10-18T08:49:54.727Z,101925.97
2022-10-18T08:52:35.522Z,101915.59
2022-10-18T08:55:08.188Z,101920.78
2022-10-18T08:57:38.133Z,101904.63
2022-10-18T09:00:17.760Z,101915.41
2022-10-18T09:02:59.587Z,101914.75
2022-10-18T09:05:39.057Z,101908.72
2022-10-18T09:08:39.716Z,101912.00
2022-10-18T09:11:23.748Z,101911.56
2022-10-18T09:14:23.273Z,101923.34
2022-10-18T09:17:03.742Z,101918.56
2022-10-18T09:19:54.949Z,101919.56
2022-10-18T09:22:40.429Z,101924.38
2022-10-18T09:25:19.948Z,101921.06
2022-10-18T09:27:55.416Z,101916.88
2022-10-18T09:30:47.623Z,101931.81
2022-10-18T09:33:28.781Z,101923.75
2022-10-18T09:36:00.769Z,101925.41
2022-10-18T09:38:35.460Z,101925.59
2022-10-18T09:44:13.287Z,101921.25
2022-10-18T09:46:49.305Z,101914.63
2022-10-18T09:49:21.665Z,101915.91
2022-10-18T09:51:53.451Z,101924.63
2022-10-18T09:54:34.641Z,101915.72
2022-10-18T09:57:13.891Z,101914.91
2022-10-18T09:59:45.565Z,101923.41
2022-10-18T10:02:17.901Z,101922.41
2022-10-18T10:04:48.561Z,101914.97
2022-10-18T10:07:21.453Z,101917.84
2022-10-18T10:09:58.171Z,101920.53
2022-10-18T10:12:36.780Z,101925.28
2022-10-18T10:15:20.992Z,101925.28
2022-10-18T10:17:58.774Z,101927.53
2022-10-18T10:20:38.034Z,101926.69
2022-10-18T10:23:11.591Z,101920.47
2022-10-18T10:25:41.667Z,101924.38
2022-10-18T10:28:19.508Z,101924.78
2022-10-18T10:30:49.380Z,101921.06
2022-10-18T10:33:35.858Z,101919.94
2022-10-18T10:36:07.772Z,101920.97
2022-10-18T10:38:37.601Z,101919.88
2022-10-18T10:41:07.741Z,101919.59
2022-10-18T10:43:40.809Z,101910.25
2022-10-18T10:46:12.758Z,101908.97
2022-10-18T10:48:49.687Z,101905.44
2022-10-18T10:51:21.649Z,101904.22
2022-10-18T10:53:53.964Z,101892.44
2022-10-18T10:56:28.041Z,101893.84
2022-10-18T10:59:10.188Z,101892.19
2022-10-18T11:01:40.135Z,101892.44
2022-10-18T11:04:26.832Z,101883.34
2022-10-18T11:07:03.581Z,101886.66
2022-10-18T11:09:54.079Z,101866.16
2022-10-18T11:12:36.406Z,101856.81
2022-10-18T11:15:20.639Z,101868.78
2022-10-18T11:18:05.513Z,101872.69
2022-10-18T11:20:39.692Z,101875.78
2022-10-18T11:23:11.338Z,101880.13
2022-10-18T11:25:54.346Z,101879.09
2022-10-18T11:28:39.657Z,101878.09
2022-10-18T11:31:27.502Z,101872.31
2022-10-18T11:34:15.801Z,101866.94
2022-10-18T11:37:09.681Z,101872.31
2022-10-18T11:39:56.997Z,101858.66
2022-10-18T11:42:39.845Z,101864.06
2022-10-18T11:45:26.118Z,101862.84
2022-10-18T11:48:07.221Z,101869.56
2022-10-18T11:50:47.171Z,101867.94
2022-10-18T11:53:27.619Z,101867.59
2022-10-18T11:56:11.355Z,101864.50
2022-10-18T11:58:54.207Z,101862.06
2022-10-18T12:01:33.153Z,101861.69
2022-10-18T12:04:12.114Z,101847.84
2022-10-18T12:06:44.587Z,101840.38
2022-10-18T12:09:22.543Z,101838.72
2022-10-18T12:11:58.525Z,101850.91
2022-10-18T12:14:32.564Z,101849.25
2022-10-18T12:17:40.179Z,101851.56
2022-10-18T12:20:02.248Z,101849.50
2022-10-18T12:22:39.242Z,101844.50
2022-10-18T12:25:15.396Z,101847.00
2022-10-18T12:27:55.635Z,101840.78
2022-10-18T12:30:33.799Z,101844.50
2022-10-18T12:33:27.229Z,101838.88
2022-10-18T12:36:16.308Z,101834.31
2022-10-18T12:38:51.831Z,101836.81
2022-10-18T12:41:25.735Z,101843.66
2022-10-18T12:43:56.825Z,101835.59
2022-10-18T12:46:26.723Z,101822.97
2022-10-18T12:49:06.362Z,101829.19
2022-10-18T12:51:47.358Z,101825.66
2022-10-18T12:54:23.699Z,101817.56
2022-10-18T12:56:53.660Z,101815.91
2022-10-18T12:59:47.099Z,101820.84
2022-10-18T13:02:32.258Z,101822.91
2022-10-18T13:05:41.097Z,101824.78
2022-10-18T13:08:46.038Z,101817.53
2022-10-18T13:11:33.356Z,101821.44
2022-10-18T13:14:28.934Z,101827.84
2022-10-18T13:17:05.031Z,101825.78
2022-10-18T13:19:42.895Z,101832.47
2022-10-18T13:22:25.565Z,101825.03
2022-10-18T13:25:05.531Z,101831.88
2022-10-18T13:27:46.520Z,101835.00
2022-10-18T13:30:36.803Z,101822.56
2022-10-18T13:33:29.947Z,101833.53
2022-10-18T13:36:01.277Z,101831.69
2022-10-18T13:38:42.664Z,101830.66
2022-10-18T13:41:17.734Z,101830.25
2022-10-18T13:44:22.869Z,101825.75
2022-10-18T13:47:41.000Z,101819.38
2022-10-18T13:53:34.027Z,101826.06
2022-10-18T13:56:33.467Z,101832.28
2022-10-18T13:59:18.591Z,101829.19
2022-10-18T14:02:04.183Z,101827.41
2022-10-18T14:04:49.668Z,101833.50
2022-10-18T14:07:21.860Z,101832.50
2022-10-18T14:09:56.849Z,101839.13
2022-10-18T14:12:43.318Z,101843.25
2022-10-18T14:15:19.601Z,101838.03
2022-10-18T14:17:52.219Z,101843.94
2022-10-18T14:20:29.859Z,101840.16
2022-10-18T14:23:05.851Z,101857.16
2022-10-18T14:25:51.929Z,101849.31
2022-10-18T14:28:36.291Z,101857.69
2022-10-18T14:31:17.522Z,101856.66
2022-10-18T14:33:52.711Z,101857.28
2022-10-18T14:36:28.655Z,101864.97
2022-10-18T14:39:00.413Z,101864.34
2022-10-18T14:41:32.794Z,101867.63
2022-10-18T14:44:22.634Z,101861.53
2022-10-18T14:46:54.096Z,101862.75
2022-10-18T14:49:24.236Z,101876.13
2022-10-18T14:51:56.315Z,101870.31
2022-10-18T14:54:31.578Z,101866.16
2022-10-18T14:57:02.956Z,101862.00
2022-10-18T14:59:40.283Z,101854.09
2022-10-18T15:02:17.232Z,101854.09
2022-10-18T15:04:48.280Z,101852.81
2022-10-18T15:07:20.467Z,101851.94
2022-10-18T15:09:51.033Z,101855.66
2022-10-18T15:12:21.497Z,101852.13
2022-10-18T15:14:54.666Z,101852.34
2022-10-18T15:17:28.191Z,101847.78
2022-10-18T15:20:04.981Z,101849.06
2022-10-18T15:22:36.622Z,101856.50
2022-10-18T15:25:17.032Z,101857.91
2022-10-18T15:27:49.255Z,101854.78
2022-10-18T15:30:27.806Z,101853.66
2022-10-18T15:33:01.718Z,101857.75
2022-10-18T15:35:33.423Z,101859.38
2022-10-18T15:38:16.082Z,101855.16
2022-10-18T15:40:46.507Z,101860.06
2022-10-18T15:43:43.038Z,101861.50
2022-10-18T15:46:33.775Z,101854.78
2022-10-18T15:49:54.844Z,101863.06
2022-10-18T15:52:39.582Z,101862.94
2022-10-18T15:55:39.349Z,101867.44
2022-10-18T15:58:14.744Z,101870.69
2022-10-18T16:00:45.617Z,101874.13
2022-10-18T16:03:18.830Z,101869.31
2022-10-18T16:05:48.688Z,101860.81
2022-10-18T16:08:23.713Z,101865.91
2022-10-18T16:10:53.652Z,101869.97
2022-10-18T16:13:23.464Z,101867.47
2022-10-18T16:15:55.720Z,101871.38
2022-10-18T16:18:28.920Z,101871.75
2022-10-18T16:20:59.198Z,101873.97
2022-10-18T16:23:31.319Z,101871.47
2022-10-18T16:26:01.177Z,101879.91
2022-10-18T16:28:31.894Z,101882.16
2022-10-18T16:31:04.844Z,101880.66
2022-10-18T16:33:38.291Z,101882.72
2022-10-18T16:36:13.931Z,101877.50
2022-10-18T16:38:43.862Z,101885.13
2022-10-18T16:41:15.869Z,101887.34
2022-10-18T16:43:46.438Z,101887.53
2022-10-18T16:46:19.347Z,101890.56
2022-10-18T16:49:15.982Z,101895.09
2022-10-18T16:51:47.960Z,101893.25
2022-10-18T16:54:18.352Z,101897.97
2022-10-18T16:56:50.219Z,101899.97
2022-10-18T16:59:25.722Z,101898.50
2022-10-18T17:01:55.561Z,101903.03
2022-10-18T17:04:29.241Z,101902.75
2022-10-18T17:07:01.045Z,101910.16
2022-10-18T17:09:30.870Z,101900.44
2022-10-18T17:12:00.647Z,101899.78
2022-10-18T17:14:30.448Z,101913.94
2022-10-18T17:17:00.236Z,101908.09
2022-10-18T17:19:32.612Z,101908.66
2022-10-18T17:22:02.927Z,101901.63
2022-10-18T17:24:32.784Z,101902.63
2022-10-18T17:27:02.677Z,101906.69
2022-10-18T17:29:34.148Z,101904.53
2022-10-18T17:32:09.609Z,101912.59
2022-10-18T17:34:42.708Z,101909.06
2022-10-18T17:37:15.139Z,101914.44
2022-10-18T17:39:46.692Z,101914.63
2022-10-18T17:42:19.715Z,101912.31
2022-10-18T17:44:54.160Z,101918.50
2022-10-18T17:47:27.088Z,101917.84
2022-10-18T17:49:59.687Z,101917.38
2022-10-18T17:52:29.770Z,101916.72
2022-10-18T17:54:59.868Z,101909.88
2022-10-18T17:57:44.540Z,101920.97
2022-10-18T18:00:24.791Z,101918.00
2022-10-18T18:02:54.597Z,101914.31
2022-10-18T18:05:29.581Z,101923.72
2022-10-18T18:08:03.720Z,101922.41
2022-10-18T18:10:35.408Z,101919.88
2022-10-18T18:13:05.736Z,101926.09
2022-10-18T18:15:35.846Z,101927.28
2022-10-18T18:18:06.074Z,101925.78
2022-10-18T18:20:38.600Z,101933.38
2022-10-18T18:23:08.459Z,101930.84
2022-10-18T18:25:39.382Z,101925.84
2022-10-18T18:28:09.242Z,101935.75
2022-10-18T18:30:45.239Z,101938.94
2022-10-18T18:33:15.089Z,101932.06
2022-10-18T18:35:56.985Z,101931.41
2022-10-18T18:38:27.260Z,101939.28
2022-10-18T18:41:06.940Z,101935.13
2022-10-18T18:43:37.467Z,101930.59
2022-10-18T18:46:07.984Z,101938.63
2022-10-18T18:48:38.729Z,101945.00
2022-10-18T18:51:17.936Z,101946.03
2022-10-18T18:53:49.566Z,101939.00
2022-10-18T18:59:11.784Z,101938.81
2022-10-18T19:01:41.702Z,101937.50
2022-10-18T19:04:13.253Z,101923.44
2022-10-18T19:06:48.004Z,101932.13
2022-10-18T19:09:22.612Z,101930.28
2022-10-18T19:11:54.615Z,101929.63
2022-10-18T19:14:25.772Z,101929.63
2022-10-18T19:16:58.867Z,101932.47
2022-10-18T19:19:30.570Z,101937.84
2022-10-18T19:22:05.110Z,101939.69
2022-10-18T19:24:35.500Z,101941.38
2022-10-18T19:27:09.802Z,101947.09
2022-10-18T19:29:42.333Z,101945.41
2022-10-18T19:32:15.019Z,101944.72
2022-10-18T19:34:45.801Z,101947.59
2022-10-18T19:37:18.549Z,101954.97
2022-10-18T19:39:48.861Z,101953.31
2022-10-18T19:42:22.754Z,101958.19
2022-10-18T19:44:56.164Z,101961.88
2022-10-18T19:47:26.075Z,101953.19
2022-10-18T19:49:55.892Z,101957.69
2022-10-18T19:52:28.953Z,101955.56
2022-10-18T19:54:58.726Z,101958.41
2022-10-18T19:57:28.898Z,101966.63
2022-10-18T20:00:00.720Z,101964.28
2022-10-18T20:02:31.286Z,101970.66
2022-10-18T20:05:02.490Z,101972.84
2022-10-18T20:07:34.929Z,101972.19
2022-10-18T20:10:05.108Z,101971.38
2022-10-18T20:12:36.385Z,101985.13
2022-10-18T20:15:08.924Z,101978.25
2022-10-18T20:17:38.879Z,101986.44
2022-10-18T20:20:10.079Z,101985.59
2022-10-18T20:22:42.465Z,101979.75
2022-10-18T20:25:12.474Z,101982.78
2022-10-18T20:27:42.349Z,101987.00
2022-10-18T20:30:12.967Z,101979.47
2022-10-18T20:32:42.899Z,101985.84
2022-10-18T20:35:16.316Z,101986.84
2022-10-18T20:37:49.807Z,101980.66
2022-10-18T20:40:19.910Z,101985.16
2022-10-18T20:42:49.712Z,101979.16
2022-10-18T20:45:19.718Z,101980.50
2022-10-18T20:47:49.602Z,101984.53
2022-10-18T20:50:19.514Z,101980.34
2022-10-18T20:52:52.008Z,101980.81
2022-10-18T20:55:21.772Z,101980.97
2022-10-18T20:57:51.574Z,101981.31
2022-10-18T21:00:21.746Z,101976.28
2022-10-18T21:02:51.521Z,101985.34
2022-10-18T21:05:21.290Z,101991.69
2022-10-18T21:07:53.721Z,101985.50
2022-10-18T21:10:23.760Z,101989.84
2022-10-18T21:12:53.570Z,101982.84
2022-10-18T21:15:23.435Z,101978.66
2022-10-18T21:17:53.855Z,101975.13
2022-10-18T21:20:23.612Z,101975.31
2022-10-18T21:22:57.447Z,101972.97
2022-10-18T21:25:27.242Z,101972.28
2022-10-18T21:27:57.080Z,101974.31
2022-10-18T21:30:26.845Z,101968.13
2022-10-18T21:32:56.821Z,101970.97
2022-10-18T21:35:26.565Z,101973.81
2022-10-18T21:37:59.233Z,101970.31
2022-10-18T21:40:28.970Z,101971.81
2022-10-18T21:42:58.810Z,101972.81
2022-10-18T21:45:28.556Z,101972.13
2022-10-18T21:47:58.348Z,101968.78
2022-10-18T21:50:28.150Z,101976.00
2022-10-18T21:53:00.758Z,101976.00
2022-10-18T21:55:30.544Z,101977.84
2022-10-18T21:58:00.355Z,101979.84
2022-10-18T22:00:30.152Z,101972.47
2022-10-18T22:03:10.116Z,101965.63
2022-10-18T22:05:40.026Z,101970.81
2022-10-18T22:08:12.505Z,101975.50
2022-10-18T22:10:42.499Z,101966.44
2022-10-18T22:13:12.446Z,101975.31
2022-10-18T22:15:42.253Z,101966.63
2022-10-18T22:18:12.166Z,101974.00
2022-10-18T22:20:42.000Z,101964.13
2022-10-18T22:23:14.463Z,101965.44
2022-10-18T22:25:44.297Z,101963.09
2022-10-18T22:28:14.216Z,101956.06
2022-10-18T22:30:44.344Z,101959.41
2022-10-18T22:33:14.661Z,101952.75
2022-10-18T22:35:44.924Z,101953.41
2022-10-18T22:38:17.656Z,101957.59
2022-10-18T22:40:48.108Z,101954.75
2022-10-18T22:43:18.151Z,101950.88
2022-10-18T22:45:48.097Z,101951.56
2022-10-18T22:48:18.015Z,101949.53
2022-10-18T22:50:47.850Z,101951.22
2022-10-18T22:53:20.249Z,101935.97
2022-10-18T22:55:51.363Z,101931.63
2022-10-18T22:58:21.839Z,101938.66
2022-10-18T23:00:51.880Z,101934.31
2022-10-18T23:03:23.168Z,101934.31
2022-10-18T23:05:52.955Z,101928.94
2022-10-18T23:08:25.797Z,101931.63
2022-10-18T23:10:57.315Z,101936.81
2022-10-18T23:13:29.047Z,101940.31
2022-10-18T23:16:04.655Z,101952.03
2022-10-18T23:18:35.878Z,101943.00
2022-10-18T23:21:07.487Z,101943.00
2022-10-18T23:23:42.257Z,101950.19
2022-10-18T23:26:14.855Z,101940.50
2022-10-18T23:28:47.011Z,101938.00
2022-10-18T23:31:19.597Z,101936.50
2022-10-18T23:33:50.955Z,101939.00
2022-10-18T23:36:21.837Z,101946.88
2022-10-18T23:38:54.748Z,101943.34
2022-10-18T23:41:25.023Z,101939.50
2022-10-18T23:43:55.008Z,101934.47
2022-10-18T23:46:25.209Z,101936.16
2022-10-18T23:48:55.037Z,101946.88
2022-10-18T23:51:25.101Z,101936.31
2022-10-18T23:53:57.526Z,101946.38
2022-10-18T23:56:27.363Z,101934.66
2022-10-18T23:58:59.251Z,101941.00
